createdAt,value
2018-07-04T00:01:02.423Z,99.90
2018-07-04T00:03:42.551Z,99.90
2018-07-04T00:06:23.046Z,99.90
2018-07-04T00:09:03.337Z,99.90
2018-07-04T00:11:43.703Z,99.90
2018-07-04T00:14:24.039Z,99.90
2018-07-04T00:19:38.266Z,99.90
2018-07-04T00:22:18.302Z,99.90
2018-07-04T00:24:58.419Z,99.90
2018-07-04T00:27:38.547Z,99.90
2018-07-04T00:30:18.841Z,99.90
2018-07-04T00:32:58.984Z,99.90
2018-07-04T00:35:39.152Z,99.90
2018-07-04T00:43:27.687Z,99.90
2018-07-04T00:46:08.220Z,99.90
2018-07-04T00:48:48.422Z,99.90
2018-07-04T00:51:28.940Z,99.90
2018-07-04T00:54:09.048Z,99.90
2018-07-04T00:56:49.183Z,99.90
2018-07-04T00:59:29.467Z,99.90
2018-07-04T01:04:43.682Z,99.90
2018-07-04T01:07:23.905Z,99.90
2018-07-04T01:10:04.218Z,99.90
2018-07-04T01:12:44.392Z,99.90
2018-07-04T01:15:24.626Z,99.90
2018-07-04T01:18:04.972Z,99.90
2018-07-04T01:20:50.491Z,99.90
2018-07-04T01:23:30.720Z,99.90
2018-07-04T01:26:11.120Z,99.90
2018-07-04T01:28:51.328Z,99.90
2018-07-04T01:31:31.671Z,99.90
2018-07-04T01:34:11.900Z,99.90
2018-07-04T01:36:52.083Z,99.90
2018-07-04T01:44:40.905Z,99.90
2018-07-04T01:47:21.168Z,99.90
2018-07-04T01:50:01.279Z,99.90
2018-07-04T01:52:41.481Z,99.90
2018-07-04T01:55:21.555Z,99.90
2018-07-04T01:58:01.883Z,99.90
2018-07-04T02:00:42.242Z,99.90
2018-07-04T02:03:22.536Z,99.90
2018-07-04T02:06:02.739Z,99.90
2018-07-04T02:08:42.977Z,99.90
2018-07-04T02:11:23.303Z,99.90
2018-07-04T02:14:03.547Z,99.90
2018-07-04T02:16:43.699Z,99.90
2018-07-04T02:21:58.579Z,99.90
2018-07-04T02:24:38.767Z,99.90
2018-07-04T02:27:19.574Z,99.90
2018-07-04T02:29:59.801Z,99.90
2018-07-04T02:32:39.996Z,99.90
2018-07-04T02:35:20.323Z,99.90
2018-07-04T02:38:00.615Z,99.90
2018-07-04T02:40:40.891Z,99.90
2018-07-04T02:43:20.992Z,99.90
2018-07-04T02:46:01.311Z,99.90
2018-07-04T02:48:41.548Z,99.90
2018-07-04T02:51:22.017Z,99.90
2018-07-04T02:56:36.539Z,99.90
2018-07-04T02:59:16.742Z,99.90
2018-07-04T03:01:56.796Z,99.90
2018-07-04T03:04:37.120Z,99.90
2018-07-04T03:07:17.400Z,99.90
2018-07-04T03:12:32.108Z,99.90
2018-07-04T03:15:12.411Z,99.90
2018-07-04T03:17:52.567Z,99.90
2018-07-04T03:20:32.673Z,99.90
2018-07-04T03:23:12.944Z,99.90
2018-07-04T03:25:53.102Z,99.90
2018-07-04T03:28:33.451Z,99.90
2018-07-04T03:31:13.668Z,99.90
2018-07-04T03:33:53.814Z,99.90
2018-07-04T03:36:34.028Z,99.90
2018-07-04T03:41:48.556Z,99.90
2018-07-04T03:44:28.654Z,99.90
2018-07-04T03:47:08.947Z,99.90
2018-07-04T03:49:49.110Z,99.90
2018-07-04T03:52:29.290Z,99.90
2018-07-04T03:55:09.416Z,99.90
2018-07-04T03:57:49.743Z,99.90
2018-07-04T04:00:29.916Z,99.90
2018-07-04T04:03:10.295Z,99.90
2018-07-04T04:05:50.503Z,99.90
2018-07-04T04:08:30.815Z,99.90
2018-07-04T04:11:10.919Z,99.90
2018-07-04T04:13:51.105Z,99.90
2018-07-04T04:16:31.247Z,99.90
2018-07-04T04:19:11.403Z,99.90
2018-07-04T04:21:51.637Z,99.90
2018-07-04T04:24:31.892Z,99.90
2018-07-04T04:27:12.089Z,99.90
2018-07-04T04:29:52.372Z,99.90
2018-07-04T04:32:32.571Z,99.90
2018-07-04T04:35:12.678Z,99.90
2018-07-04T04:37:53.065Z,99.90
2018-07-04T04:40:33.404Z,99.90
2018-07-04T04:43:13.572Z,99.90
2018-07-04T04:45:53.880Z,99.90
2018-07-04T04:48:34.048Z,99.90
2018-07-04T04:51:14.383Z,99.90
2018-07-04T04:56:28.876Z,99.90
2018-07-04T04:59:09.047Z,99.90
2018-07-04T05:01:49.351Z,99.90
2018-07-04T05:04:29.584Z,99.90
2018-07-04T05:07:09.911Z,99.90
2018-07-04T05:09:50.182Z,99.90
2018-07-04T05:12:30.680Z,99.90
2018-07-04T05:15:10.731Z,99.90
2018-07-04T05:17:51.261Z,99.90
2018-07-04T05:23:05.719Z,99.90
2018-07-04T05:25:45.959Z,99.90
2018-07-04T05:28:26.419Z,99.90
2018-07-04T05:31:06.646Z,99.90
2018-07-04T05:33:46.875Z,99.90
2018-07-04T05:36:27.116Z,99.90
2018-07-04T05:39:07.245Z,99.90
2018-07-04T05:41:47.607Z,99.90
2018-07-04T05:49:36.079Z,99.90
2018-07-04T05:54:50.841Z,99.90
2018-07-04T05:57:31.277Z,99.90
2018-07-04T06:00:11.617Z,99.90
2018-07-04T06:02:51.880Z,99.90
2018-07-04T06:05:31.964Z,99.90
2018-07-04T06:08:12.356Z,99.90
2018-07-04T06:10:52.596Z,99.90
2018-07-04T06:13:32.787Z,99.90
2018-07-04T06:18:47.345Z,99.90
2018-07-04T06:21:27.662Z,99.90
2018-07-04T06:24:07.720Z,99.90
2018-07-04T06:26:48.035Z,99.90
2018-07-04T06:29:28.217Z,99.90
2018-07-04T06:32:08.547Z,99.90
2018-07-04T06:37:22.787Z,99.90
2018-07-04T06:39:50.880Z,99.90
2018-07-04T06:42:18.762Z,99.90
2018-07-04T06:44:46.838Z,99.90
2018-07-04T06:49:43.004Z,99.20
2018-07-04T06:52:10.907Z,98.50
2018-07-04T06:54:38.848Z,97.60
2018-07-04T06:57:06.828Z,98.10
2018-07-04T06:59:34.732Z,98.50
2018-07-04T07:02:09.939Z,97.90
2018-07-04T07:04:51.623Z,97.10
2018-07-04T07:07:32.115Z,95.80
2018-07-04T07:10:12.375Z,95.60
2018-07-04T07:12:52.657Z,94.70
2018-07-04T07:15:33.092Z,94.20
2018-07-04T07:18:14.268Z,94.10
2018-07-04T07:20:54.543Z,95.00
2018-07-04T07:23:34.674Z,95.60
2018-07-04T07:26:14.839Z,95.50
2018-07-04T07:28:55.108Z,95.00
2018-07-04T07:31:35.307Z,94.30
2018-07-04T07:34:15.509Z,94.50
2018-07-04T07:36:55.679Z,94.60
2018-07-04T07:39:35.857Z,93.80
2018-07-04T07:42:16.126Z,93.10
2018-07-04T07:47:32.029Z,88.40
2018-07-04T07:50:12.499Z,87.30
2018-07-04T07:52:52.607Z,86.20
2018-07-04T07:55:32.731Z,86.00
2018-07-04T07:58:13.031Z,86.90
2018-07-04T08:00:53.143Z,85.00
2018-07-04T08:03:33.482Z,87.80
2018-07-04T08:08:47.623Z,88.80
2018-07-04T08:11:27.860Z,86.30
2018-07-04T08:14:08.033Z,87.90
2018-07-04T08:16:48.220Z,86.60
2018-07-04T08:22:02.831Z,85.50
2018-07-04T08:24:43.120Z,85.40
2018-07-04T08:27:23.320Z,83.20
2018-07-04T08:30:03.391Z,83.50
2018-07-04T08:32:43.697Z,82.50
2018-07-04T08:35:23.815Z,80.50
2018-07-04T08:38:03.955Z,80.80
2018-07-04T08:40:44.279Z,81.70
2018-07-04T08:43:24.466Z,80.70
2018-07-04T08:46:04.611Z,79.20
2018-07-04T08:48:44.720Z,77.20
2018-07-04T08:51:25.647Z,76.00
2018-07-04T08:54:05.763Z,77.60
2018-07-04T08:56:46.007Z,77.60
2018-07-04T08:59:26.279Z,76.10
2018-07-04T09:02:06.471Z,80.30
2018-07-04T09:04:46.805Z,78.10
2018-07-04T09:07:27.149Z,83.10
2018-07-04T09:10:07.510Z,85.00
2018-07-04T09:12:47.747Z,86.10
2018-07-04T09:15:27.927Z,87.40
2018-07-04T09:18:07.998Z,86.30
2018-07-04T09:22:17.308Z,82.00
2018-07-04T09:24:57.480Z,80.60
2018-07-04T09:27:37.543Z,79.90
2018-07-04T09:30:17.856Z,81.30
2018-07-04T09:32:58.151Z,80.40
2018-07-04T09:35:38.450Z,79.70
2018-07-04T09:38:18.761Z,77.80
2018-07-04T09:40:58.876Z,76.50
2018-07-04T09:43:39.051Z,76.60
2018-07-04T09:46:19.411Z,74.60
2018-07-04T09:48:59.744Z,74.30
2018-07-04T09:51:39.960Z,75.30
2018-07-04T09:54:20.029Z,76.00
2018-07-04T09:57:00.355Z,75.80
2018-07-04T09:59:40.550Z,72.50
2018-07-04T10:07:29.250Z,71.70
2018-07-04T10:10:09.283Z,75.90
2018-07-04T10:12:49.423Z,74.60
2018-07-04T10:15:29.447Z,74.60
2018-07-04T10:18:09.768Z,73.90
2018-07-04T10:20:49.895Z,72.40
2018-07-04T10:23:30.068Z,73.00
2018-07-04T10:26:10.303Z,72.70
2018-07-04T10:28:50.363Z,70.30
2018-07-04T10:31:30.538Z,71.40
2018-07-04T10:34:10.717Z,68.00
2018-07-04T10:36:51.031Z,66.60
2018-07-04T10:39:31.280Z,68.00
2018-07-04T10:42:11.698Z,66.70
2018-07-04T10:44:51.938Z,66.90
2018-07-04T10:47:32.071Z,65.40
2018-07-04T10:50:12.404Z,66.60
2018-07-04T10:52:52.630Z,66.10
2018-07-04T10:55:32.711Z,67.90
2018-07-04T10:58:13.003Z,68.20
2018-07-04T11:00:53.227Z,69.90
2018-07-04T11:03:33.587Z,66.50
2018-07-04T11:06:13.860Z,66.50
2018-07-04T11:08:54.157Z,62.70
2018-07-04T11:11:34.288Z,63.00
2018-07-04T11:14:14.615Z,62.90
2018-07-04T11:16:54.829Z,61.10
2018-07-04T11:19:35.215Z,60.90
2018-07-04T11:22:15.454Z,63.40
2018-07-04T11:24:55.661Z,62.70
2018-07-04T11:27:35.980Z,61.80
2018-07-04T11:30:16.020Z,63.20
2018-07-04T11:32:56.203Z,62.90
2018-07-04T11:35:36.284Z,61.60
2018-07-04T11:38:16.416Z,64.40
2018-07-04T11:40:56.689Z,64.00
2018-07-04T11:43:36.927Z,63.20
2018-07-04T11:46:04.827Z,60.50
2018-07-04T11:48:32.897Z,58.80
2018-07-04T11:51:00.795Z,57.40
2018-07-04T11:53:28.688Z,58.00
2018-07-04T11:55:56.627Z,58.50
2018-07-04T11:58:24.509Z,60.20
2018-07-04T12:00:52.399Z,61.30
2018-07-04T12:03:23.687Z,57.60
2018-07-04T12:06:04.001Z,57.10
2018-07-04T12:08:31.894Z,57.10
2018-07-04T12:10:59.803Z,55.20
2018-07-04T12:13:28.459Z,58.10
2018-07-04T12:15:56.358Z,55.90
2018-07-04T12:18:24.249Z,56.50
2018-07-04T12:23:20.195Z,57.30
2018-07-04T12:25:48.088Z,56.30
2018-07-04T12:28:15.963Z,56.20
2018-07-04T12:30:43.857Z,57.00
2018-07-04T12:33:11.748Z,53.80
2018-07-04T12:35:39.766Z,54.60
2018-07-04T12:38:07.665Z,55.00
2018-07-04T12:40:35.631Z,53.90
2018-07-04T12:43:03.524Z,53.20
2018-07-04T12:45:39.365Z,52.70
2018-07-04T12:47:59.331Z,56.20
2018-07-04T12:50:28.747Z,55.60
2018-07-04T12:52:56.631Z,54.10
2018-07-04T12:55:38.100Z,50.90
2018-07-04T12:58:19.311Z,48.90
2018-07-04T13:00:59.843Z,50.60
2018-07-04T13:03:40.140Z,53.10
2018-07-04T13:06:20.405Z,55.40
2018-07-04T13:09:00.681Z,58.50
2018-07-04T13:14:15.400Z,63.60
2018-07-04T13:16:55.604Z,64.80
2018-07-04T13:19:36.231Z,58.30
2018-07-04T13:22:16.419Z,54.70
2018-07-04T13:24:56.600Z,53.20
2018-07-04T13:27:36.788Z,55.20
2018-07-04T13:30:16.935Z,55.30
2018-07-04T13:32:57.243Z,55.60
2018-07-04T13:35:37.438Z,54.40
2018-07-04T13:38:17.524Z,51.40
2018-07-04T13:40:57.875Z,53.20
2018-07-04T13:43:38.119Z,55.60
2018-07-04T13:46:18.235Z,57.60
2018-07-04T13:48:58.412Z,58.60
2018-07-04T13:54:12.615Z,55.40
2018-07-04T13:56:52.891Z,54.50
2018-07-04T13:59:33.127Z,53.60
2018-07-04T14:02:13.332Z,51.40
2018-07-04T14:04:53.623Z,50.80
2018-07-04T14:07:33.864Z,51.00
2018-07-04T14:10:14.055Z,49.80
2018-07-04T14:12:54.334Z,48.60
2018-07-04T14:15:34.459Z,49.10
2018-07-04T14:18:14.768Z,50.50
2018-07-04T14:20:54.876Z,51.20
2018-07-04T14:23:35.195Z,54.10
2018-07-04T14:26:16.019Z,57.90
2018-07-04T14:28:56.379Z,57.10
2018-07-04T14:31:36.567Z,54.40
2018-07-04T14:34:16.691Z,53.00
2018-07-04T14:36:56.787Z,54.50
2018-07-04T14:39:37.100Z,54.10
2018-07-04T14:42:17.204Z,55.60
2018-07-04T14:44:57.523Z,56.20
2018-07-04T14:47:37.579Z,54.40
2018-07-04T14:50:17.912Z,53.20
2018-07-04T14:52:58.200Z,53.20
2018-07-04T14:55:38.367Z,53.20
2018-07-04T14:58:18.439Z,54.40
2018-07-04T15:00:58.651Z,56.90
2018-07-04T15:03:38.931Z,57.90
2018-07-04T15:06:19.043Z,61.20
2018-07-04T15:08:59.408Z,63.10
2018-07-04T15:11:39.590Z,62.00
2018-07-04T15:14:19.740Z,61.40
2018-07-04T15:18:02.494Z,62.00
2018-07-04T15:20:42.700Z,62.20
2018-07-04T15:23:22.961Z,62.90
2018-07-04T15:26:03.356Z,63.20
2018-07-04T15:28:43.669Z,62.70
2018-07-04T15:31:24.035Z,64.10
2018-07-04T15:34:04.368Z,66.20
2018-07-04T15:36:44.691Z,66.00
2018-07-04T15:39:25.215Z,63.80
2018-07-04T15:42:05.350Z,65.10
2018-07-04T15:44:45.471Z,67.80
2018-07-04T15:47:25.696Z,66.40
2018-07-04T15:52:40.124Z,69.80
2018-07-04T15:55:20.316Z,70.80
2018-07-04T15:58:00.687Z,74.50
2018-07-04T16:00:40.892Z,73.50
2018-07-04T16:03:21.048Z,71.80
2018-07-04T16:06:01.223Z,69.80
2018-07-04T16:08:41.387Z,69.80
2018-07-04T16:13:55.863Z,67.00
2018-07-04T16:16:35.952Z,69.90
2018-07-04T16:19:16.119Z,73.10
2018-07-04T16:21:56.113Z,74.90
2018-07-04T16:24:36.283Z,76.20
2018-07-04T16:27:16.464Z,76.20
2018-07-04T16:29:56.668Z,75.10
2018-07-04T16:32:36.995Z,71.50
2018-07-04T16:35:17.087Z,69.60
2018-07-04T16:37:57.247Z,67.80
2018-07-04T16:40:37.459Z,68.50
2018-07-04T16:43:17.582Z,66.90
2018-07-04T16:45:57.728Z,70.10
2018-07-04T16:48:38.039Z,73.10
2018-07-04T16:51:18.225Z,74.90
2018-07-04T16:53:58.391Z,75.90
2018-07-04T16:56:38.578Z,77.50
2018-07-04T16:59:18.769Z,77.40
2018-07-04T17:01:59.035Z,79.60
2018-07-04T17:04:39.163Z,81.20
2018-07-04T17:07:19.415Z,79.60
2018-07-04T17:10:00.088Z,80.00
2018-07-04T17:12:40.211Z,78.20
2018-07-04T17:20:28.907Z,82.60
2018-07-04T17:23:09.119Z,84.90
2018-07-04T17:25:49.430Z,85.30
2018-07-04T17:28:29.717Z,87.80
2018-07-04T17:31:09.969Z,90.10
2018-07-04T17:33:50.236Z,91.70
2018-07-04T17:36:30.499Z,93.30
2018-07-04T17:39:10.735Z,95.20
2018-07-04T17:41:50.777Z,95.60
2018-07-04T17:44:31.036Z,96.40
2018-07-04T17:49:45.455Z,96.80
2018-07-04T17:52:25.548Z,97.00
2018-07-04T17:55:05.728Z,97.40
2018-07-04T17:57:45.759Z,98.00
2018-07-04T18:03:00.148Z,98.50
2018-07-04T18:05:40.628Z,98.60
2018-07-04T18:08:20.809Z,98.90
2018-07-04T18:11:01.074Z,98.80
2018-07-04T18:13:41.247Z,99.20
2018-07-04T18:16:21.544Z,99.30
2018-07-04T18:19:01.655Z,99.40
2018-07-04T18:21:41.933Z,99.50
2018-07-04T18:24:22.093Z,99.90
2018-07-04T18:27:02.244Z,99.80
2018-07-04T18:29:42.388Z,99.90
2018-07-04T18:32:22.628Z,99.90
2018-07-04T18:35:02.912Z,99.90
2018-07-04T18:37:43.023Z,99.90
2018-07-04T18:40:23.108Z,99.90
2018-07-04T18:43:03.392Z,99.90
2018-07-04T18:45:43.622Z,99.90
2018-07-04T18:48:24.110Z,99.90
2018-07-04T18:51:04.331Z,99.90
2018-07-04T18:53:44.451Z,99.90
2018-07-04T18:56:24.666Z,99.90
2018-07-04T18:59:04.844Z,99.90
2018-07-04T19:01:44.970Z,99.90
2018-07-04T19:04:25.149Z,99.90
2018-07-04T19:07:05.400Z,99.90
2018-07-04T19:12:20.663Z,99.90
2018-07-04T19:15:01.039Z,99.90
2018-07-04T19:17:41.368Z,99.90
2018-07-04T19:20:21.598Z,99.90
2018-07-04T19:23:01.990Z,99.90
2018-07-04T19:25:42.256Z,99.90
2018-07-04T19:28:22.719Z,99.90
2018-07-04T19:31:02.964Z,99.90
2018-07-04T19:33:43.175Z,99.90
2018-07-04T19:36:23.327Z,99.90
2018-07-04T19:39:04.573Z,99.90
2018-07-04T19:41:44.949Z,99.90
2018-07-04T19:44:25.265Z,99.90
2018-07-04T19:47:05.391Z,99.90
2018-07-04T19:49:45.824Z,99.90
2018-07-04T19:52:25.958Z,99.90
2018-07-04T19:55:06.197Z,99.90
2018-07-04T19:57:46.634Z,99.90
2018-07-04T20:00:26.743Z,99.90
2018-07-04T20:03:06.926Z,99.90
2018-07-04T20:05:47.043Z,99.90
2018-07-04T20:08:27.479Z,99.90
2018-07-04T20:13:41.887Z,99.90
2018-07-04T20:16:22.127Z,99.90
2018-07-04T20:19:02.310Z,99.90
2018-07-04T20:21:42.619Z,99.90
2018-07-04T20:24:22.707Z,99.90
2018-07-04T20:27:03.007Z,99.90
2018-07-04T20:29:43.099Z,99.90
2018-07-04T20:32:23.254Z,99.90
2018-07-04T20:35:03.431Z,99.90
2018-07-04T20:37:43.837Z,99.90
2018-07-04T20:40:24.166Z,99.90
2018-07-04T20:43:04.361Z,99.90
2018-07-04T20:45:44.461Z,99.90
2018-07-04T20:48:24.756Z,99.90
2018-07-04T20:51:05.080Z,99.90
2018-07-04T20:53:45.249Z,99.90
2018-07-04T20:56:25.531Z,99.90
2018-07-04T20:59:05.589Z,99.90
2018-07-04T21:01:45.823Z,99.90
2018-07-04T21:04:25.999Z,99.90
2018-07-04T21:07:07.151Z,99.90
2018-07-04T21:09:47.487Z,99.90
2018-07-04T21:12:27.735Z,99.90
2018-07-04T21:15:07.900Z,99.90
2018-07-04T21:17:47.992Z,99.90
2018-07-04T21:20:28.139Z,99.90
2018-07-04T21:25:42.760Z,99.90
2018-07-04T21:28:22.952Z,99.90
2018-07-04T21:31:03.308Z,99.90
2018-07-04T21:33:43.550Z,99.90
2018-07-04T21:36:23.753Z,99.90
2018-07-04T21:39:04.629Z,99.90
2018-07-04T21:41:44.986Z,99.90
2018-07-04T21:44:25.223Z,99.90
2018-07-04T21:47:05.576Z,99.90
2018-07-04T21:49:45.808Z,99.90
2018-07-04T21:52:26.220Z,99.90
2018-07-04T21:55:06.351Z,99.90
2018-07-04T21:57:46.907Z,99.90
2018-07-04T22:00:27.186Z,99.90
2018-07-04T23:25:17.167Z,99.90
2018-07-04T23:27:57.632Z,99.90
2018-07-04T23:30:37.787Z,99.90
2018-07-04T23:33:18.076Z,99.90
2018-07-04T23:35:58.495Z,99.90
2018-07-04T23:38:38.666Z,99.90
2018-07-04T23:41:18.989Z,99.90
2018-07-04T23:43:59.185Z,99.90
2018-07-04T23:46:39.581Z,99.90
2018-07-04T23:49:19.899Z,99.90
2018-07-04T23:52:00.351Z,99.90
2018-07-04T23:54:40.659Z,99.90
2018-07-04T23:57:21.060Z,99.90
